sensor_id;sensor_type;location;lat;lon;timestamp;P1;durP1;ratioP1;P2;durP2;ratioP2
20449;SDS011;10384;51.940;8.432;2023-10-08T00:00:31;9.13;;;3.30;;
20449;SDS011;10384;51.940;8.432;2023-10-08T00:03:15;11.93;;;3.50;;
20449;SDS011;10384;51.940;8.432;2023-10-08T00:05:45;7.60;;;3.13;;
20449;SDS011;10384;51.940;8.432;2023-10-08T00:08:11;8.67;;;3.40;;
20449;SDS011;10384;51.940;8.432;2023-10-08T00:10:41;9.53;;;3.60;;
20449;SDS011;10384;51.940;8.432;2023-10-08T00:13:08;10.30;;;3.30;;
20449;SDS011;10384;51.940;8.432;2023-10-08T00:15:37;9.87;;;3.80;;
20449;SDS011;10384;51.940;8.432;2023-10-08T00:18:06;8.97;;;3.60;;
20449;SDS011;10384;51.940;8.432;2023-10-08T00:20:36;9.30;;;3.40;;
20449;SDS011;10384;51.940;8.432;2023-10-08T00:23:20;8.67;;;2.97;;
20449;SDS011;10384;51.940;8.432;2023-10-08T00:25:46;11.70;;;3.53;;
20449;SDS011;10384;51.940;8.432;2023-10-08T00:28:13;9.37;;;3.40;;
20449;SDS011;10384;51.940;8.432;2023-10-08T00:30:40;8.63;;;3.17;;
20449;SDS011;10384;51.940;8.432;2023-10-08T00:33:09;17.60;;;3.73;;
20449;SDS011;10384;51.940;8.432;2023-10-08T00:35:39;12.83;;;3.50;;
20449;SDS011;10384;51.940;8.432;2023-10-08T00:38:06;12.73;;;4.00;;
20449;SDS011;10384;51.940;8.432;2023-10-08T00:40:39;12.27;;;3.60;;
20449;SDS011;10384;51.940;8.432;2023-10-08T00:43:05;8.63;;;3.83;;
20449;SDS011;10384;51.940;8.432;2023-10-08T00:45:35;11.47;;;3.73;;
20449;SDS011;10384;51.940;8.432;2023-10-08T00:48:07;8.40;;;3.27;;
20449;SDS011;10384;51.940;8.432;2023-10-08T00:50:33;7.27;;;3.93;;
20449;SDS011;10384;51.940;8.432;2023-10-08T00:53:08;8.50;;;3.50;;
20449;SDS011;10384;51.940;8.432;2023-10-08T00:55:42;10.23;;;3.70;;
20449;SDS011;10384;51.940;8.432;2023-10-08T00:58:18;12.73;;;3.90;;
20449;SDS011;10384;51.940;8.432;2023-10-08T01:00:50;9.07;;;3.27;;
20449;SDS011;10384;51.940;8.432;2023-10-08T01:03:17;11.60;;;3.57;;
20449;SDS011;10384;51.940;8.432;2023-10-08T01:05:44;16.27;;;4.03;;
20449;SDS011;10384;51.940;8.432;2023-10-08T01:08:13;12.07;;;4.40;;
20449;SDS011;10384;51.940;8.432;2023-10-08T01:10:47;9.80;;;3.33;;
20449;SDS011;10384;51.940;8.432;2023-10-08T01:13:22;9.77;;;3.70;;
20449;SDS011;10384;51.940;8.432;2023-10-08T01:15:51;9.23;;;3.77;;
20449;SDS011;10384;51.940;8.432;2023-10-08T01:18:17;12.63;;;3.87;;
20449;SDS011;10384;51.940;8.432;2023-10-08T01:20:46;12.80;;;3.80;;
20449;SDS011;10384;51.940;8.432;2023-10-08T01:23:12;14.07;;;4.30;;
20449;SDS011;10384;51.940;8.432;2023-10-08T01:25:39;10.80;;;3.97;;
20449;SDS011;10384;51.940;8.432;2023-10-08T01:28:06;14.77;;;4.07;;
20449;SDS011;10384;51.940;8.432;2023-10-08T01:30:47;10.90;;;4.10;;
20449;SDS011;10384;51.940;8.432;2023-10-08T01:33:18;13.57;;;3.93;;
20449;SDS011;10384;51.940;8.432;2023-10-08T01:35:46;12.53;;;4.40;;
20449;SDS011;10384;51.940;8.432;2023-10-08T01:38:13;11.23;;;4.13;;
20449;SDS011;10384;51.940;8.432;2023-10-08T01:40:41;10.00;;;3.50;;
20449;SDS011;10384;51.940;8.432;2023-10-08T01:43:07;10.73;;;3.90;;
20449;SDS011;10384;51.940;8.432;2023-10-08T01:45:37;5.70;;;2.20;;
20449;SDS011;10384;51.940;8.432;2023-10-08T01:48:06;3.47;;;3.17;;
20449;SDS011;10384;51.940;8.432;2023-10-08T01:50:34;3.17;;;2.00;;
20449;SDS011;10384;51.940;8.432;2023-10-08T01:53:00;2.97;;;1.10;;
20449;SDS011;10384;51.940;8.432;2023-10-08T01:55:26;2.80;;;0.83;;
20449;SDS011;10384;51.940;8.432;2023-10-08T01:57:52;1.40;;;0.90;;
20449;SDS011;10384;51.940;8.432;2023-10-08T02:00:18;2.03;;;1.00;;
20449;SDS011;10384;51.940;8.432;2023-10-08T02:02:47;2.97;;;1.70;;
20449;SDS011;10384;51.940;8.432;2023-10-08T02:05:15;0.60;;;0.60;;
20449;SDS011;10384;51.940;8.432;2023-10-08T02:07:43;0.57;;;0.40;;
20449;SDS011;10384;51.940;8.432;2023-10-08T02:10:10;0.30;;;0.30;;
20449;SDS011;10384;51.940;8.432;2023-10-08T02:12:38;0.47;;;0.27;;
20449;SDS011;10384;51.940;8.432;2023-10-08T02:15:05;0.30;;;0.30;;
20449;SDS011;10384;51.940;8.432;2023-10-08T02:17:31;0.20;;;0.20;;
20449;SDS011;10384;51.940;8.432;2023-10-08T02:19:57;0.27;;;0.27;;
20449;SDS011;10384;51.940;8.432;2023-10-08T02:22:23;0.20;;;0.20;;
20449;SDS011;10384;51.940;8.432;2023-10-08T02:24:49;0.20;;;0.20;;
20449;SDS011;10384;51.940;8.432;2023-10-08T02:27:18;0.20;;;0.20;;
20449;SDS011;10384;51.940;8.432;2023-10-08T02:29:44;0.10;;;0.10;;
20449;SDS011;10384;51.940;8.432;2023-10-08T02:32:10;0.30;;;0.30;;
20449;SDS011;10384;51.940;8.432;2023-10-08T02:34:36;1.50;;;0.30;;
20449;SDS011;10384;51.940;8.432;2023-10-08T02:37:02;0.20;;;0.20;;
20449;SDS011;10384;51.940;8.432;2023-10-08T02:39:31;0.20;;;0.20;;
20449;SDS011;10384;51.940;8.432;2023-10-08T02:41:57;0.30;;;0.20;;
20449;SDS011;10384;51.940;8.432;2023-10-08T02:44:24;0.80;;;0.80;;
20449;SDS011;10384;51.940;8.432;2023-10-08T02:46:51;1.00;;;0.80;;
20449;SDS011;10384;51.940;8.432;2023-10-08T02:49:20;0.20;;;0.20;;
20449;SDS011;10384;51.940;8.432;2023-10-08T02:51:48;0.20;;;0.20;;
20449;SDS011;10384;51.940;8.432;2023-10-08T02:54:15;1.20;;;0.30;;
20449;SDS011;10384;51.940;8.432;2023-10-08T02:56:47;1.47;;;1.00;;
20449;SDS011;10384;51.940;8.432;2023-10-08T02:59:16;4.60;;;2.70;;
20449;SDS011;10384;51.940;8.432;2023-10-08T03:01:42;1.63;;;1.10;;
20449;SDS011;10384;51.940;8.432;2023-10-08T03:04:09;0.30;;;0.30;;
20449;SDS011;10384;51.940;8.432;2023-10-08T03:06:45;0.50;;;0.50;;
20449;SDS011;10384;51.940;8.432;2023-10-08T03:09:14;0.87;;;0.47;;
20449;SDS011;10384;51.940;8.432;2023-10-08T03:11:45;1.43;;;0.47;;
20449;SDS011;10384;51.940;8.432;2023-10-08T03:14:13;0.63;;;0.60;;
20449;SDS011;10384;51.940;8.432;2023-10-08T03:16:40;0.67;;;0.67;;
20449;SDS011;10384;51.940;8.432;2023-10-08T03:19:06;4.20;;;2.70;;
20449;SDS011;10384;51.940;8.432;2023-10-08T03:21:33;2.73;;;1.50;;
20449;SDS011;10384;51.940;8.432;2023-10-08T03:24:02;11.23;;;6.47;;
20449;SDS011;10384;51.940;8.432;2023-10-08T03:26:37;2.23;;;1.40;;
20449;SDS011;10384;51.940;8.432;2023-10-08T03:29:05;0.63;;;0.60;;
20449;SDS011;10384;51.940;8.432;2023-10-08T03:31:40;0.50;;;0.50;;
20449;SDS011;10384;51.940;8.432;2023-10-08T03:34:13;0.93;;;0.80;;
20449;SDS011;10384;51.940;8.432;2023-10-08T03:36:40;1.73;;;0.50;;
20449;SDS011;10384;51.940;8.432;2023-10-08T03:39:13;1.37;;;0.90;;
20449;SDS011;10384;51.940;8.432;2023-10-08T03:41:39;0.60;;;0.60;;
20449;SDS011;10384;51.940;8.432;2023-10-08T03:44:06;2.20;;;1.23;;
20449;SDS011;10384;51.940;8.432;2023-10-08T03:46:38;0.60;;;0.60;;
20449;SDS011;10384;51.940;8.432;2023-10-08T03:49:08;0.53;;;0.53;;
20449;SDS011;10384;51.940;8.432;2023-10-08T03:52:00;1.97;;;1.70;;
20449;SDS011;10384;51.940;8.432;2023-10-08T03:54:26;2.43;;;1.90;;
20449;SDS011;10384;51.940;8.432;2023-10-08T03:56:59;0.97;;;0.80;;
20449;SDS011;10384;51.940;8.432;2023-10-08T03:59:26;5.80;;;0.80;;
20449;SDS011;10384;51.940;8.432;2023-10-08T04:02:02;0.93;;;0.83;;
20449;SDS011;10384;51.940;8.432;2023-10-08T04:04:56;0.60;;;0.50;;
20449;SDS011;10384;51.940;8.432;2023-10-08T04:07:23;1.10;;;0.73;;
20449;SDS011;10384;51.940;8.432;2023-10-08T04:09:58;0.97;;;0.60;;
20449;SDS011;10384;51.940;8.432;2023-10-08T04:12:44;3.50;;;0.83;;
20449;SDS011;10384;51.940;8.432;2023-10-08T04:15:15;0.40;;;0.30;;
20449;SDS011;10384;51.940;8.432;2023-10-08T04:17:41;1.90;;;0.50;;
20449;SDS011;10384;51.940;8.432;2023-10-08T04:20:11;2.00;;;0.47;;
20449;SDS011;10384;51.940;8.432;2023-10-08T04:22:57;1.60;;;0.80;;
20449;SDS011;10384;51.940;8.432;2023-10-08T04:25:25;2.87;;;0.80;;
20449;SDS011;10384;51.940;8.432;2023-10-08T04:27:52;6.63;;;0.87;;
20449;SDS011;10384;51.940;8.432;2023-10-08T04:30:19;1.23;;;0.50;;
20449;SDS011;10384;51.940;8.432;2023-10-08T04:32:47;3.57;;;0.60;;
20449;SDS011;10384;51.940;8.432;2023-10-08T04:35:17;0.77;;;0.40;;
20449;SDS011;10384;51.940;8.432;2023-10-08T04:37:50;2.60;;;1.10;;
20449;SDS011;10384;51.940;8.432;2023-10-08T04:40:17;5.40;;;0.90;;
20449;SDS011;10384;51.940;8.432;2023-10-08T04:42:47;2.47;;;0.80;;
20449;SDS011;10384;51.940;8.432;2023-10-08T04:45:13;2.27;;;0.70;;
20449;SDS011;10384;51.940;8.432;2023-10-08T04:47:39;5.30;;;0.93;;
20449;SDS011;10384;51.940;8.432;2023-10-08T04:50:08;1.80;;;0.80;;
20449;SDS011;10384;51.940;8.432;2023-10-08T04:52:40;2.37;;;1.40;;
20449;SDS011;10384;51.940;8.432;2023-10-08T04:55:24;3.73;;;1.00;;
20449;SDS011;10384;51.940;8.432;2023-10-08T04:57:54;1.87;;;1.20;;
20449;SDS011;10384;51.940;8.432;2023-10-08T05:00:20;3.27;;;1.13;;
20449;SDS011;10384;51.940;8.432;2023-10-08T05:03:05;4.43;;;2.10;;
20449;SDS011;10384;51.940;8.432;2023-10-08T05:05:39;2.33;;;1.80;;
20449;SDS011;10384;51.940;8.432;2023-10-08T05:08:25;4.90;;;2.53;;
20449;SDS011;10384;51.940;8.432;2023-10-08T05:10:58;5.70;;;2.50;;
20449;SDS011;10384;51.940;8.432;2023-10-08T05:13:40;2.13;;;1.27;;
20449;SDS011;10384;51.940;8.432;2023-10-08T05:16:26;3.70;;;1.17;;
20449;SDS011;10384;51.940;8.432;2023-10-08T05:19:02;3.87;;;1.20;;
20449;SDS011;10384;51.940;8.432;2023-10-08T05:21:46;5.00;;;1.13;;
20449;SDS011;10384;51.940;8.432;2023-10-08T05:24:31;4.80;;;1.63;;
20449;SDS011;10384;51.940;8.432;2023-10-08T05:27:03;7.03;;;1.00;;
20449;SDS011;10384;51.940;8.432;2023-10-08T05:29:48;1.97;;;1.00;;
20449;SDS011;10384;51.940;8.432;2023-10-08T05:32:36;1.63;;;0.93;;
20449;SDS011;10384;51.940;8.432;2023-10-08T05:35:03;3.00;;;0.90;;
20449;SDS011;10384;51.940;8.432;2023-10-08T05:37:48;3.00;;;0.90;;
20449;SDS011;10384;51.940;8.432;2023-10-08T05:40:27;4.07;;;0.90;;
20449;SDS011;10384;51.940;8.432;2023-10-08T05:43:11;1.67;;;0.93;;
20449;SDS011;10384;51.940;8.432;2023-10-08T05:45:58;3.07;;;0.80;;
20449;SDS011;10384;51.940;8.432;2023-10-08T05:48:44;3.10;;;0.90;;
20449;SDS011;10384;51.940;8.432;2023-10-08T05:51:16;4.10;;;0.80;;
20449;SDS011;10384;51.940;8.432;2023-10-08T05:54:01;10.60;;;1.20;;
20449;SDS011;10384;51.940;8.432;2023-10-08T05:56:37;2.30;;;1.10;;
20449;SDS011;10384;51.940;8.432;2023-10-08T05:59:26;8.47;;;1.00;;
20449;SDS011;10384;51.940;8.432;2023-10-08T06:02:03;2.57;;;0.97;;
20449;SDS011;10384;51.940;8.432;2023-10-08T06:04:49;5.80;;;1.47;;
20449;SDS011;10384;51.940;8.432;2023-10-08T06:07:34;3.03;;;0.87;;
20449;SDS011;10384;51.940;8.432;2023-10-08T06:10:13;5.47;;;1.30;;
20449;SDS011;10384;51.940;8.432;2023-10-08T06:13:00;2.67;;;0.80;;
20449;SDS011;10384;51.940;8.432;2023-10-08T06:15:34;5.00;;;0.87;;
20449;SDS011;10384;51.940;8.432;2023-10-08T06:18:19;3.83;;;0.70;;
20449;SDS011;10384;51.940;8.432;2023-10-08T06:20:48;2.70;;;1.10;;
20449;SDS011;10384;51.940;8.432;2023-10-08T06:23:19;6.83;;;2.63;;
20449;SDS011;10384;51.940;8.432;2023-10-08T06:25:46;5.97;;;3.20;;
20449;SDS011;10384;51.940;8.432;2023-10-08T06:28:16;7.60;;;2.70;;
20449;SDS011;10384;51.940;8.432;2023-10-08T06:30:46;6.13;;;1.30;;
20449;SDS011;10384;51.940;8.432;2023-10-08T06:33:12;3.77;;;0.90;;
20449;SDS011;10384;51.940;8.432;2023-10-08T06:35:38;1.73;;;0.73;;
20449;SDS011;10384;51.940;8.432;2023-10-08T06:38:09;3.50;;;0.80;;
20449;SDS011;10384;51.940;8.432;2023-10-08T06:40:35;2.27;;;0.67;;
20449;SDS011;10384;51.940;8.432;2023-10-08T06:43:06;5.13;;;1.00;;
20449;SDS011;10384;51.940;8.432;2023-10-08T06:45:42;1.20;;;0.60;;
20449;SDS011;10384;51.940;8.432;2023-10-08T06:48:08;3.07;;;0.70;;
20449;SDS011;10384;51.940;8.432;2023-10-08T06:50:42;4.30;;;1.00;;
20449;SDS011;10384;51.940;8.432;2023-10-08T06:53:08;6.57;;;0.70;;
20449;SDS011;10384;51.940;8.432;2023-10-08T06:55:35;4.30;;;0.90;;
20449;SDS011;10384;51.940;8.432;2023-10-08T06:58:01;6.83;;;0.80;;
20449;SDS011;10384;51.940;8.432;2023-10-08T07:00:32;4.03;;;1.53;;
20449;SDS011;10384;51.940;8.432;2023-10-08T07:03:05;1.90;;;0.60;;
20449;SDS011;10384;51.940;8.432;2023-10-08T07:05:33;2.27;;;0.77;;
20449;SDS011;10384;51.940;8.432;2023-10-08T07:08:04;2.23;;;0.60;;
20449;SDS011;10384;51.940;8.432;2023-10-08T07:10:32;2.87;;;0.80;;
20449;SDS011;10384;51.940;8.432;2023-10-08T07:12:59;2.63;;;0.70;;
20449;SDS011;10384;51.940;8.432;2023-10-08T07:15:27;3.07;;;0.60;;
20449;SDS011;10384;51.940;8.432;2023-10-08T07:17:55;3.80;;;1.10;;
20449;SDS011;10384;51.940;8.432;2023-10-08T07:20:21;4.43;;;0.90;;
20449;SDS011;10384;51.940;8.432;2023-10-08T07:22:47;3.37;;;1.03;;
20449;SDS011;10384;51.940;8.432;2023-10-08T07:25:21;0.87;;;0.60;;
20449;SDS011;10384;51.940;8.432;2023-10-08T07:27:47;4.13;;;0.87;;
20449;SDS011;10384;51.940;8.432;2023-10-08T07:30:14;1.60;;;0.70;;
20449;SDS011;10384;51.940;8.432;2023-10-08T07:32:51;4.40;;;0.60;;
20449;SDS011;10384;51.940;8.432;2023-10-08T07:35:19;1.50;;;0.70;;
20449;SDS011;10384;51.940;8.432;2023-10-08T07:37:45;2.90;;;1.20;;
20449;SDS011;10384;51.940;8.432;2023-10-08T07:40:12;2.17;;;0.90;;
20449;SDS011;10384;51.940;8.432;2023-10-08T07:42:39;3.83;;;1.30;;
20449;SDS011;10384;51.940;8.432;2023-10-08T07:45:05;4.97;;;1.30;;
20449;SDS011;10384;51.940;8.432;2023-10-08T07:47:31;6.20;;;1.57;;
20449;SDS011;10384;51.940;8.432;2023-10-08T07:49:57;2.70;;;1.50;;
20449;SDS011;10384;51.940;8.432;2023-10-08T07:52:24;6.07;;;1.67;;
20449;SDS011;10384;51.940;8.432;2023-10-08T07:54:49;3.00;;;1.40;;
20449;SDS011;10384;51.940;8.432;2023-10-08T07:57:16;6.07;;;1.77;;
20449;SDS011;10384;51.940;8.432;2023-10-08T07:59:50;3.87;;;1.20;;
20449;SDS011;10384;51.940;8.432;2023-10-08T08:02:19;3.43;;;1.70;;
20449;SDS011;10384;51.940;8.432;2023-10-08T08:04:51;2.37;;;1.27;;
20449;SDS011;10384;51.940;8.432;2023-10-08T08:07:18;4.13;;;1.70;;
20449;SDS011;10384;51.940;8.432;2023-10-08T08:09:45;4.63;;;1.33;;
20449;SDS011;10384;51.940;8.432;2023-10-08T08:12:23;6.37;;;1.43;;
20449;SDS011;10384;51.940;8.432;2023-10-08T08:14:50;5.67;;;1.67;;
20449;SDS011;10384;51.940;8.432;2023-10-08T08:17:17;4.27;;;1.10;;
20449;SDS011;10384;51.940;8.432;2023-10-08T08:19:44;3.17;;;1.37;;
20449;SDS011;10384;51.940;8.432;2023-10-08T08:22:12;5.83;;;1.40;;
20449;SDS011;10384;51.940;8.432;2023-10-08T08:24:40;3.50;;;1.33;;
20449;SDS011;10384;51.940;8.432;2023-10-08T08:27:10;4.20;;;1.40;;
20449;SDS011;10384;51.940;8.432;2023-10-08T08:29:56;7.23;;;1.70;;
20449;SDS011;10384;51.940;8.432;2023-10-08T08:32:31;4.40;;;1.50;;
20449;SDS011;10384;51.940;8.432;2023-10-08T08:34:57;4.57;;;1.43;;
20449;SDS011;10384;51.940;8.432;2023-10-08T08:37:23;2.63;;;1.30;;
20449;SDS011;10384;51.940;8.432;2023-10-08T08:39:57;2.67;;;1.07;;
20449;SDS011;10384;51.940;8.432;2023-10-08T08:42:23;4.37;;;1.30;;
20449;SDS011;10384;51.940;8.432;2023-10-08T08:44:49;3.40;;;1.17;;
20449;SDS011;10384;51.940;8.432;2023-10-08T08:47:16;3.70;;;1.70;;
20449;SDS011;10384;51.940;8.432;2023-10-08T08:49:43;4.97;;;1.40;;
20449;SDS011;10384;51.940;8.432;2023-10-08T08:52:10;4.83;;;1.27;;
20449;SDS011;10384;51.940;8.432;2023-10-08T08:54:37;4.13;;;0.93;;
20449;SDS011;10384;51.940;8.432;2023-10-08T08:57:03;1.20;;;1.00;;
20449;SDS011;10384;51.940;8.432;2023-10-08T08:59:31;3.60;;;1.00;;
20449;SDS011;10384;51.940;8.432;2023-10-08T09:01:58;2.80;;;1.10;;
20449;SDS011;10384;51.940;8.432;2023-10-08T09:04:30;4.57;;;0.90;;
20449;SDS011;10384;51.940;8.432;2023-10-08T09:06:58;1.87;;;0.80;;
20449;SDS011;10384;51.940;8.432;2023-10-08T09:09:32;4.23;;;1.23;;
20449;SDS011;10384;51.940;8.432;2023-10-08T09:11:58;3.80;;;1.13;;
20449;SDS011;10384;51.940;8.432;2023-10-08T09:14:25;1.47;;;0.73;;
20449;SDS011;10384;51.940;8.432;2023-10-08T09:16:52;1.93;;;0.77;;
20449;SDS011;10384;51.940;8.432;2023-10-08T09:19:19;3.43;;;1.50;;
20449;SDS011;10384;51.940;8.432;2023-10-08T09:22:03;1.80;;;0.73;;
20449;SDS011;10384;51.940;8.432;2023-10-08T09:24:33;2.40;;;0.70;;
20449;SDS011;10384;51.940;8.432;2023-10-08T09:27:01;1.40;;;0.80;;
20449;SDS011;10384;51.940;8.432;2023-10-08T09:29:27;2.50;;;0.70;;
20449;SDS011;10384;51.940;8.432;2023-10-08T09:31:57;1.00;;;0.70;;
20449;SDS011;10384;51.940;8.432;2023-10-08T09:34:25;2.13;;;0.93;;
20449;SDS011;10384;51.940;8.432;2023-10-08T09:36:52;3.80;;;0.80;;
20449;SDS011;10384;51.940;8.432;2023-10-08T09:39:18;2.13;;;0.80;;
20449;SDS011;10384;51.940;8.432;2023-10-08T09:41:49;2.67;;;0.80;;
20449;SDS011;10384;51.940;8.432;2023-10-08T09:44:16;1.47;;;0.90;;
20449;SDS011;10384;51.940;8.432;2023-10-08T09:46:43;5.33;;;1.30;;
20449;SDS011;10384;51.940;8.432;2023-10-08T09:49:10;2.57;;;0.90;;
20449;SDS011;10384;51.940;8.432;2023-10-08T09:51:39;2.97;;;1.10;;
20449;SDS011;10384;51.940;8.432;2023-10-08T09:54:20;3.87;;;0.90;;
20449;SDS011;10384;51.940;8.432;2023-10-08T09:56:47;5.47;;;1.53;;
20449;SDS011;10384;51.940;8.432;2023-10-08T09:59:13;2.63;;;1.10;;
20449;SDS011;10384;51.940;8.432;2023-10-08T10:01:40;2.67;;;0.90;;
20449;SDS011;10384;51.940;8.432;2023-10-08T10:04:10;3.40;;;1.40;;
20449;SDS011;10384;51.940;8.432;2023-10-08T10:06:37;4.00;;;0.80;;
20449;SDS011;10384;51.940;8.432;2023-10-08T10:09:04;5.73;;;1.27;;
20449;SDS011;10384;51.940;8.432;2023-10-08T10:11:33;2.23;;;1.00;;
20449;SDS011;10384;51.940;8.432;2023-10-08T10:14:01;2.60;;;1.17;;
20449;SDS011;10384;51.940;8.432;2023-10-08T10:16:31;2.20;;;0.80;;
20449;SDS011;10384;51.940;8.432;2023-10-08T10:18:59;1.47;;;0.90;;
20449;SDS011;10384;51.940;8.432;2023-10-08T10:21:26;4.77;;;1.00;;
20449;SDS011;10384;51.940;8.432;2023-10-08T10:23:53;4.07;;;0.80;;
20449;SDS011;10384;51.940;8.432;2023-10-08T10:31:34;2.40;;;1.10;;
20449;SDS011;10384;51.940;8.432;2023-10-08T10:34:07;3.40;;;0.80;;
20449;SDS011;10384;51.940;8.432;2023-10-08T10:36:34;1.90;;;0.83;;
20449;SDS011;10384;51.940;8.432;2023-10-08T10:39:00;2.60;;;0.80;;
20449;SDS011;10384;51.940;8.432;2023-10-08T10:41:40;3.40;;;0.80;;
20449;SDS011;10384;51.940;8.432;2023-10-08T10:44:07;2.13;;;0.97;;
20449;SDS011;10384;51.940;8.432;2023-10-08T10:46:33;2.03;;;1.10;;
20449;SDS011;10384;51.940;8.432;2023-10-08T10:49:01;2.87;;;1.00;;
20449;SDS011;10384;51.940;8.432;2023-10-08T10:51:41;4.13;;;0.93;;
20449;SDS011;10384;51.940;8.432;2023-10-08T10:54:07;3.13;;;1.00;;
20449;SDS011;10384;51.940;8.432;2023-10-08T10:56:35;2.77;;;1.03;;
20449;SDS011;10384;51.940;8.432;2023-10-08T10:59:08;4.27;;;0.80;;
20449;SDS011;10384;51.940;8.432;2023-10-08T11:01:52;2.73;;;0.90;;
20449;SDS011;10384;51.940;8.432;2023-10-08T11:04:32;1.80;;;1.07;;
20449;SDS011;10384;51.940;8.432;2023-10-08T11:06:58;3.83;;;0.97;;
20449;SDS011;10384;51.940;8.432;2023-10-08T11:09:26;2.30;;;0.90;;
20449;SDS011;10384;51.940;8.432;2023-10-08T11:12:02;2.37;;;1.10;;
20449;SDS011;10384;51.940;8.432;2023-10-08T11:14:36;1.00;;;0.90;;
20449;SDS011;10384;51.940;8.432;2023-10-08T11:17:13;3.33;;;1.10;;
20449;SDS011;10384;51.940;8.432;2023-10-08T11:19:40;3.77;;;0.93;;
20449;SDS011;10384;51.940;8.432;2023-10-08T11:22:07;1.37;;;0.90;;
20449;SDS011;10384;51.940;8.432;2023-10-08T11:24:41;3.13;;;1.17;;
20449;SDS011;10384;51.940;8.432;2023-10-08T11:27:08;4.33;;;1.00;;
20449;SDS011;10384;51.940;8.432;2023-10-08T11:29:53;3.73;;;1.03;;
20449;SDS011;10384;51.940;8.432;2023-10-08T11:32:23;1.70;;;0.90;;
20449;SDS011;10384;51.940;8.432;2023-10-08T11:34:57;2.63;;;0.97;;
20449;SDS011;10384;51.940;8.432;2023-10-08T11:39:54;6.87;;;1.17;;
20449;SDS011;10384;51.940;8.432;2023-10-08T11:42:23;4.33;;;1.50;;
20449;SDS011;10384;51.940;8.432;2023-10-08T11:44:58;4.00;;;0.90;;
20449;SDS011;10384;51.940;8.432;2023-10-08T11:47:25;7.73;;;0.97;;
20449;SDS011;10384;51.940;8.432;2023-10-08T11:49:56;4.20;;;0.97;;
20449;SDS011;10384;51.940;8.432;2023-10-08T11:52:35;3.80;;;1.03;;
20449;SDS011;10384;51.940;8.432;2023-10-08T11:55:10;2.80;;;1.27;;
20449;SDS011;10384;51.940;8.432;2023-10-08T11:57:44;4.07;;;0.90;;
20449;SDS011;10384;51.940;8.432;2023-10-08T12:00:13;2.87;;;1.00;;
20449;SDS011;10384;51.940;8.432;2023-10-08T12:02:49;4.27;;;0.90;;
20449;SDS011;10384;51.940;8.432;2023-10-08T12:05:17;4.20;;;1.00;;
20449;SDS011;10384;51.940;8.432;2023-10-08T12:07:49;3.10;;;1.70;;
20449;SDS011;10384;51.940;8.432;2023-10-08T12:10:16;8.90;;;1.30;;
20449;SDS011;10384;51.940;8.432;2023-10-08T12:12:47;4.47;;;0.80;;
20449;SDS011;10384;51.940;8.432;2023-10-08T12:15:13;4.30;;;1.13;;
20449;SDS011;10384;51.940;8.432;2023-10-08T12:17:44;5.57;;;1.10;;
20449;SDS011;10384;51.940;8.432;2023-10-08T12:20:18;2.93;;;0.90;;
20449;SDS011;10384;51.940;8.432;2023-10-08T12:22:52;3.87;;;1.00;;
20449;SDS011;10384;51.940;8.432;2023-10-08T12:25:18;4.27;;;1.97;;
20449;SDS011;10384;51.940;8.432;2023-10-08T12:27:44;4.17;;;0.97;;
20449;SDS011;10384;51.940;8.432;2023-10-08T12:30:12;1.90;;;0.80;;
20449;SDS011;10384;51.940;8.432;2023-10-08T12:32:38;4.73;;;1.80;;
20449;SDS011;10384;51.940;8.432;2023-10-08T12:35:07;3.57;;;1.00;;
20449;SDS011;10384;51.940;8.432;2023-10-08T12:37:37;2.00;;;0.97;;
20449;SDS011;10384;51.940;8.432;2023-10-08T12:40:04;2.77;;;1.13;;
20449;SDS011;10384;51.940;8.432;2023-10-08T12:42:37;2.63;;;0.80;;
20449;SDS011;10384;51.940;8.432;2023-10-08T12:45:09;4.13;;;0.80;;
20449;SDS011;10384;51.940;8.432;2023-10-08T12:47:38;6.90;;;3.13;;
20449;SDS011;10384;51.940;8.432;2023-10-08T12:50:04;2.00;;;0.90;;
20449;SDS011;10384;51.940;8.432;2023-10-08T12:52:33;2.13;;;0.80;;
20449;SDS011;10384;51.940;8.432;2023-10-08T12:55:07;2.57;;;1.10;;
20449;SDS011;10384;51.940;8.432;2023-10-08T12:57:33;1.70;;;0.80;;
20449;SDS011;10384;51.940;8.432;2023-10-08T13:00:02;2.17;;;0.90;;
20449;SDS011;10384;51.940;8.432;2023-10-08T13:02:29;1.43;;;0.90;;
20449;SDS011;10384;51.940;8.432;2023-10-08T13:04:55;1.40;;;0.70;;
20449;SDS011;10384;51.940;8.432;2023-10-08T13:07:24;2.53;;;1.10;;
20449;SDS011;10384;51.940;8.432;2023-10-08T13:09:51;1.90;;;0.70;;
20449;SDS011;10384;51.940;8.432;2023-10-08T13:12:18;2.40;;;0.80;;
20449;SDS011;10384;51.940;8.432;2023-10-08T13:14:43;2.07;;;0.90;;
20449;SDS011;10384;51.940;8.432;2023-10-08T13:17:10;3.23;;;0.70;;
20449;SDS011;10384;51.940;8.432;2023-10-08T13:19:36;0.93;;;0.70;;
20449;SDS011;10384;51.940;8.432;2023-10-08T13:22:02;4.07;;;0.67;;
20449;SDS011;10384;51.940;8.432;2023-10-08T13:24:34;2.03;;;0.83;;
20449;SDS011;10384;51.940;8.432;2023-10-08T13:27:00;2.37;;;0.97;;
20449;SDS011;10384;51.940;8.432;2023-10-08T13:29:26;3.10;;;0.67;;
20449;SDS011;10384;51.940;8.432;2023-10-08T13:31:57;1.40;;;0.50;;
20449;SDS011;10384;51.940;8.432;2023-10-08T13:34:23;3.67;;;0.90;;
20449;SDS011;10384;51.940;8.432;2023-10-08T13:36:51;1.63;;;0.50;;
20449;SDS011;10384;51.940;8.432;2023-10-08T13:39:17;2.60;;;0.73;;
20449;SDS011;10384;51.940;8.432;2023-10-08T13:41:43;1.57;;;0.70;;
20449;SDS011;10384;51.940;8.432;2023-10-08T13:44:17;2.23;;;0.90;;
20449;SDS011;10384;51.940;8.432;2023-10-08T13:46:51;2.50;;;1.13;;
20449;SDS011;10384;51.940;8.432;2023-10-08T13:49:22;4.77;;;1.80;;
20449;SDS011;10384;51.940;8.432;2023-10-08T13:51:48;2.13;;;0.67;;
20449;SDS011;10384;51.940;8.432;2023-10-08T13:54:21;2.40;;;1.00;;
20449;SDS011;10384;51.940;8.432;2023-10-08T13:56:47;2.30;;;1.27;;
20449;SDS011;10384;51.940;8.432;2023-10-08T13:59:13;3.00;;;1.00;;
20449;SDS011;10384;51.940;8.432;2023-10-08T14:01:41;2.50;;;0.60;;
20449;SDS011;10384;51.940;8.432;2023-10-08T14:04:16;4.40;;;0.80;;
20449;SDS011;10384;51.940;8.432;2023-10-08T14:06:45;2.37;;;0.70;;
20449;SDS011;10384;51.940;8.432;2023-10-08T14:09:18;2.90;;;1.13;;
20449;SDS011;10384;51.940;8.432;2023-10-08T14:11:47;2.37;;;0.93;;
20449;SDS011;10384;51.940;8.432;2023-10-08T14:14:18;2.30;;;0.70;;
20449;SDS011;10384;51.940;8.432;2023-10-08T14:16:45;2.20;;;0.70;;
20449;SDS011;10384;51.940;8.432;2023-10-08T14:19:17;2.73;;;0.80;;
20449;SDS011;10384;51.940;8.432;2023-10-08T14:21:43;4.87;;;1.23;;
20449;SDS011;10384;51.940;8.432;2023-10-08T14:24:17;1.20;;;0.60;;
20449;SDS011;10384;51.940;8.432;2023-10-08T14:26:44;2.90;;;0.67;;
20449;SDS011;10384;51.940;8.432;2023-10-08T14:29:16;4.63;;;0.70;;
20449;SDS011;10384;51.940;8.432;2023-10-08T14:31:42;1.20;;;0.70;;
20449;SDS011;10384;51.940;8.432;2023-10-08T14:34:13;1.27;;;0.60;;
20449;SDS011;10384;51.940;8.432;2023-10-08T14:36:43;1.93;;;0.77;;
20449;SDS011;10384;51.940;8.432;2023-10-08T14:39:28;2.33;;;0.70;;
20449;SDS011;10384;51.940;8.432;2023-10-08T14:42:12;4.00;;;0.90;;
20449;SDS011;10384;51.940;8.432;2023-10-08T14:44:57;2.70;;;0.70;;
20449;SDS011;10384;51.940;8.432;2023-10-08T14:47:23;2.57;;;0.60;;
20449;SDS011;10384;51.940;8.432;2023-10-08T14:49:49;3.20;;;0.73;;
20449;SDS011;10384;51.940;8.432;2023-10-08T14:52:16;0.77;;;0.60;;
20449;SDS011;10384;51.940;8.432;2023-10-08T14:54:42;3.00;;;0.70;;
20449;SDS011;10384;51.940;8.432;2023-10-08T14:57:08;6.20;;;1.10;;
20449;SDS011;10384;51.940;8.432;2023-10-08T14:59:37;2.50;;;1.13;;
20449;SDS011;10384;51.940;8.432;2023-10-08T15:02:03;1.00;;;0.50;;
20449;SDS011;10384;51.940;8.432;2023-10-08T15:04:29;2.80;;;0.80;;
20449;SDS011;10384;51.940;8.432;2023-10-08T15:06:57;2.03;;;0.73;;
20449;SDS011;10384;51.940;8.432;2023-10-08T15:09:23;2.80;;;0.87;;
20449;SDS011;10384;51.940;8.432;2023-10-08T15:11:50;2.33;;;1.00;;